createdAt,value
2023-04-28T00:00:39.757Z,33.82
2023-04-28T00:03:07.680Z,33.50
2023-04-28T00:05:35.633Z,33.58
2023-04-28T00:08:03.855Z,33.70
2023-04-28T00:10:31.640Z,34.08
2023-04-28T00:12:59.440Z,33.94
2023-04-28T00:15:27.752Z,33.88
2023-04-28T00:17:55.742Z,33.79
2023-04-28T00:20:23.672Z,34.23
2023-04-28T00:22:51.580Z,33.91
2023-04-28T00:25:19.359Z,34.02
2023-04-28T00:27:47.168Z,34.14
2023-04-28T00:30:14.985Z,33.90
2023-04-28T00:32:42.894Z,33.44
2023-04-28T00:35:11.126Z,33.92
2023-04-28T00:37:38.966Z,33.96
2023-04-28T00:40:07.334Z,34.00
2023-04-28T00:42:35.205Z,34.04
2023-04-28T00:45:06.240Z,34.17
2023-04-28T00:47:34.102Z,34.05
2023-04-28T00:50:02.016Z,33.87
2023-04-28T00:52:29.790Z,34.11
2023-04-28T00:54:57.606Z,33.80
2023-04-28T00:57:25.898Z,33.61
2023-04-28T00:59:53.895Z,33.78
2023-04-28T01:02:21.852Z,34.09
2023-04-28T01:04:49.890Z,33.91
2023-04-28T01:07:17.750Z,34.11
2023-04-28T01:09:47.911Z,34.20
2023-04-28T01:12:15.941Z,33.71
2023-04-28T01:14:43.970Z,33.85
2023-04-28T01:17:11.941Z,33.72
2023-04-28T01:19:39.798Z,33.63
2023-04-28T01:22:07.622Z,34.01
2023-04-28T01:24:35.488Z,34.11
2023-04-28T01:27:03.427Z,33.88
2023-04-28T01:29:31.210Z,33.92
2023-04-28T01:31:59.168Z,34.41
2023-04-28T01:34:26.963Z,34.16
2023-04-28T01:36:54.821Z,34.45
2023-04-28T01:39:22.622Z,34.22
2023-04-28T01:41:50.485Z,34.07
2023-04-28T01:44:18.705Z,34.43
2023-04-28T01:46:46.854Z,34.04
2023-04-28T01:49:14.681Z,34.35
2023-04-28T01:51:43.022Z,34.18
2023-04-28T01:54:11.316Z,34.48
2023-04-28T01:56:39.186Z,33.99
2023-04-28T01:59:06.969Z,34.03
2023-04-28T02:01:35.011Z,34.29
2023-04-28T02:04:03.171Z,34.13
2023-04-28T02:06:31.179Z,33.90
2023-04-28T02:08:58.988Z,34.27
2023-04-28T02:11:26.791Z,33.95
2023-04-28T02:13:54.619Z,33.91
2023-04-28T02:16:22.442Z,34.11
2023-04-28T02:18:51.146Z,34.01
2023-04-28T02:21:18.986Z,34.14
2023-04-28T02:23:46.988Z,34.47
2023-04-28T02:26:15.197Z,34.53
2023-04-28T02:28:43.147Z,34.34
2023-04-28T02:31:11.042Z,33.83
2023-04-28T02:33:39.115Z,33.79
2023-04-28T02:36:07.068Z,33.91
2023-04-28T02:38:34.850Z,34.34
2023-04-28T02:41:02.695Z,34.14
2023-04-28T02:43:30.504Z,33.70
2023-04-28T02:45:58.490Z,34.17
2023-04-28T02:48:26.487Z,34.05
2023-04-28T02:50:54.327Z,33.87
2023-04-28T02:53:22.192Z,34.36
2023-04-28T02:55:50.283Z,33.80
2023-04-28T02:58:18.686Z,33.91
2023-04-28T03:00:46.608Z,34.11
2023-04-28T03:03:14.816Z,33.87
2023-04-28T03:05:42.846Z,34.30
2023-04-28T03:08:10.639Z,34.25
2023-04-28T03:10:38.502Z,34.24
2023-04-28T03:13:06.451Z,34.29
2023-04-28T03:15:34.285Z,33.86
2023-04-28T03:18:02.428Z,34.35
2023-04-28T03:20:30.227Z,33.80
2023-04-28T03:22:58.291Z,34.21
2023-04-28T03:25:26.094Z,34.46
2023-04-28T03:27:53.906Z,34.80
2023-04-28T03:30:21.782Z,34.90
2023-04-28T03:32:49.709Z,34.29
2023-04-28T03:35:17.554Z,34.74
2023-04-28T03:37:45.312Z,34.52
2023-04-28T03:40:13.442Z,34.47
2023-04-28T03:42:41.286Z,34.31
2023-04-28T03:45:09.198Z,34.30
2023-04-28T03:47:37.000Z,33.96
2023-04-28T03:50:04.743Z,34.09
2023-04-28T03:52:32.556Z,34.54
2023-04-28T03:55:00.527Z,34.55
2023-04-28T03:57:28.490Z,34.41
2023-04-28T03:59:56.344Z,34.30
2023-04-28T04:02:24.381Z,34.20
2023-04-28T04:04:52.463Z,34.11
2023-04-28T04:07:20.450Z,34.34
2023-04-28T04:09:48.350Z,33.88
2023-04-28T04:12:16.161Z,34.57
2023-04-28T04:14:44.173Z,34.17
2023-04-28T04:17:11.951Z,34.66
2023-04-28T04:19:39.834Z,33.91
2023-04-28T04:22:07.643Z,34.35
2023-04-28T04:24:35.484Z,34.38
2023-04-28T04:27:03.285Z,35.41
2023-04-28T04:29:31.703Z,34.94
2023-04-28T04:31:59.477Z,34.77
2023-04-28T04:34:27.243Z,35.22
2023-04-28T04:36:55.047Z,34.78
2023-04-28T04:39:22.970Z,35.35
2023-04-28T04:41:50.969Z,34.62
2023-04-28T04:44:19.293Z,34.50
2023-04-28T04:46:47.740Z,34.54
2023-04-28T04:49:15.669Z,35.04
2023-04-28T04:51:43.486Z,34.53
2023-04-28T04:54:11.377Z,34.42
2023-04-28T04:56:39.172Z,35.31
2023-04-28T04:59:06.990Z,35.73
2023-04-28T05:01:34.762Z,34.92
2023-04-28T05:04:02.748Z,35.71
2023-04-28T05:06:31.340Z,35.19
2023-04-28T05:09:01.593Z,35.23
2023-04-28T05:11:29.399Z,35.53
2023-04-28T05:13:58.037Z,34.55
2023-04-28T05:16:25.798Z,34.21
2023-04-28T05:18:53.739Z,34.88
2023-04-28T05:21:21.639Z,34.23
2023-04-28T05:23:50.066Z,34.67
2023-04-28T05:26:20.915Z,35.13
2023-04-28T05:28:48.667Z,34.78
2023-04-28T05:31:16.540Z,34.79
2023-04-28T05:33:44.348Z,34.68
2023-04-28T05:36:12.522Z,34.51
2023-04-28T05:38:40.531Z,34.74
2023-04-28T05:41:08.734Z,34.67
2023-04-28T05:43:38.549Z,34.19
2023-04-28T05:46:18.091Z,34.10
2023-04-28T05:48:55.862Z,34.61
2023-04-28T05:51:23.717Z,35.00
2023-04-28T05:53:52.259Z,34.79
2023-04-28T05:56:20.129Z,34.40
2023-04-28T05:58:49.727Z,34.08
2023-04-28T06:01:18.006Z,33.85
2023-04-28T06:03:47.841Z,34.42
2023-04-28T06:06:16.022Z,34.47
2023-04-28T06:08:43.967Z,34.00
2023-04-28T06:11:11.871Z,33.99
2023-04-28T06:13:39.628Z,32.33
2023-04-28T06:16:07.804Z,33.05
2023-04-28T06:18:36.027Z,34.02
2023-04-28T06:21:03.876Z,33.90
2023-04-28T06:23:33.143Z,34.03
2023-04-28T06:26:01.106Z,34.04
2023-04-28T06:28:55.425Z,33.61
2023-04-28T06:31:23.322Z,33.40
2023-04-28T06:33:51.369Z,33.45
2023-04-28T06:36:19.235Z,32.98
2023-04-28T06:38:57.579Z,33.31
2023-04-28T06:41:26.623Z,33.57
2023-04-28T06:43:54.465Z,33.38
2023-04-28T06:46:22.385Z,33.10
2023-04-28T06:48:50.448Z,33.45
2023-04-28T06:51:18.392Z,33.93
2023-04-28T06:53:46.595Z,33.51
2023-04-28T06:56:14.449Z,33.76
2023-04-28T06:58:42.525Z,34.13
2023-04-28T07:01:10.444Z,33.69
2023-04-28T07:03:39.736Z,32.79
2023-04-28T07:06:07.893Z,33.41
2023-04-28T07:08:37.022Z,33.89
2023-04-28T07:11:07.658Z,33.13
2023-04-28T07:13:35.514Z,34.04
2023-04-28T07:16:03.332Z,33.83
2023-04-28T07:18:31.280Z,33.44
2023-04-28T07:20:59.223Z,33.51
2023-04-28T07:23:27.047Z,33.74
2023-04-28T07:25:55.244Z,33.44
2023-04-28T07:28:23.057Z,33.56
2023-04-28T07:30:50.985Z,33.73
2023-04-28T07:33:18.887Z,33.30
2023-04-28T07:35:48.036Z,33.46
2023-04-28T07:38:17.305Z,33.43
2023-04-28T07:40:45.289Z,32.60
2023-04-28T07:43:14.179Z,33.19
2023-04-28T07:45:42.130Z,32.95
2023-04-28T07:48:10.124Z,33.12
2023-04-28T07:50:37.967Z,33.06
2023-04-28T07:53:10.245Z,32.86
2023-04-28T07:55:38.779Z,32.62
2023-04-28T07:58:06.557Z,32.48
2023-04-28T08:00:35.647Z,32.74
2023-04-28T08:03:03.778Z,32.28
2023-04-28T08:05:34.601Z,32.43
2023-04-28T08:08:04.722Z,32.34
2023-04-28T08:10:32.583Z,32.61
2023-04-28T08:13:02.422Z,32.20
2023-04-28T08:15:30.426Z,32.42
2023-04-28T08:17:58.400Z,32.54
2023-04-28T08:20:29.658Z,32.80
2023-04-28T08:22:57.591Z,32.71
2023-04-28T08:25:25.934Z,32.81
2023-04-28T08:27:57.344Z,33.06
2023-04-28T08:30:26.003Z,32.79
2023-04-28T08:32:54.177Z,32.96
2023-04-28T08:35:22.146Z,32.93
2023-04-28T08:37:52.375Z,32.71
2023-04-28T08:40:20.387Z,32.92
2023-04-28T08:42:48.288Z,32.66
2023-04-28T08:45:29.573Z,33.06
2023-04-28T08:47:57.596Z,32.73
2023-04-28T08:50:29.534Z,32.92
2023-04-28T08:52:58.581Z,32.95
2023-04-28T08:55:32.415Z,32.72
2023-04-28T08:58:00.299Z,32.83
2023-04-28T09:00:28.656Z,32.97
2023-04-28T09:02:56.640Z,32.72
2023-04-28T09:05:25.826Z,32.68
2023-04-28T09:07:53.969Z,32.74
2023-04-28T09:10:21.828Z,32.68
2023-04-28T09:12:50.218Z,32.80
2023-04-28T09:15:18.079Z,33.05
2023-04-28T09:17:45.940Z,33.01
2023-04-28T09:20:16.206Z,33.08
2023-04-28T09:22:44.085Z,32.93
2023-04-28T09:25:12.057Z,32.89
2023-04-28T09:34:36.643Z,33.08
2023-04-28T10:05:00.487Z,33.44
2023-04-28T10:07:30.964Z,33.42
2023-04-28T10:09:58.887Z,33.50
2023-04-28T10:12:27.017Z,33.65
2023-04-28T10:14:55.031Z,33.31
2023-04-28T10:17:22.861Z,33.56
2023-04-28T10:19:52.559Z,33.16
2023-04-28T10:22:20.404Z,33.68
2023-04-28T10:24:48.418Z,33.61
2023-04-28T10:27:17.871Z,33.81
2023-04-28T10:29:45.703Z,33.44
2023-04-28T10:32:13.539Z,33.64
2023-04-28T10:34:41.509Z,33.57
2023-04-28T10:37:09.320Z,33.53
2023-04-28T10:39:37.183Z,33.25
2023-04-28T10:42:05.201Z,33.27
2023-04-28T10:44:33.068Z,33.38
2023-04-28T10:47:01.027Z,33.10
2023-04-28T10:49:28.854Z,33.09
2023-04-28T10:51:56.905Z,33.20
2023-04-28T10:54:25.442Z,33.06
2023-04-28T10:56:53.317Z,33.37
2023-04-28T10:59:21.097Z,33.63
2023-04-28T11:01:48.886Z,33.59
2023-04-28T11:04:18.084Z,33.70
2023-04-28T11:06:46.251Z,33.60
2023-04-28T11:09:14.105Z,33.75
2023-04-28T11:11:41.903Z,33.91
2023-04-28T11:14:09.887Z,33.55
2023-04-28T11:16:37.726Z,34.01
2023-04-28T11:19:05.834Z,33.91
2023-04-28T11:21:33.847Z,34.23
2023-04-28T11:24:01.622Z,34.24
2023-04-28T11:26:29.726Z,34.08
2023-04-28T11:28:57.611Z,33.98
2023-04-28T11:31:25.450Z,34.35
2023-04-28T11:33:53.272Z,34.57
2023-04-28T11:36:21.130Z,34.39
2023-04-28T11:38:49.337Z,34.42
2023-04-28T11:41:17.178Z,34.39
2023-04-28T11:43:47.638Z,34.31
2023-04-28T11:46:16.063Z,34.04
2023-04-28T11:48:43.912Z,34.59
2023-04-28T11:51:11.698Z,34.38
2023-04-28T11:53:39.495Z,33.99
2023-04-28T11:56:09.291Z,34.58
2023-04-28T11:58:37.176Z,34.24
2023-04-28T12:01:04.985Z,34.67
2023-04-28T12:03:33.113Z,34.26
2023-04-28T12:06:01.209Z,34.56
2023-04-28T12:08:29.134Z,33.82
2023-04-28T12:10:57.238Z,33.44
2023-04-28T12:13:24.975Z,34.09
2023-04-28T12:15:53.146Z,33.56
2023-04-28T12:18:21.001Z,33.60
2023-04-28T12:20:48.806Z,33.96
2023-04-28T12:23:16.593Z,33.46
2023-04-28T12:25:44.554Z,33.21
2023-04-28T12:28:12.444Z,33.30
2023-04-28T12:30:42.266Z,33.53
2023-04-28T12:33:10.339Z,33.25
2023-04-28T12:35:38.498Z,33.40
2023-04-28T12:38:06.497Z,33.57
2023-04-28T12:40:34.266Z,33.39
2023-04-28T12:43:02.072Z,33.37
2023-04-28T12:45:30.354Z,33.28
2023-04-28T12:47:58.151Z,33.40
2023-04-28T12:50:27.186Z,33.32
2023-04-28T12:52:56.265Z,33.73
2023-04-28T12:55:24.105Z,33.35
2023-04-28T12:57:52.000Z,33.31
2023-04-28T13:00:23.330Z,33.52
2023-04-28T13:02:51.462Z,33.42
2023-04-28T13:05:19.690Z,33.67
2023-04-28T13:07:47.813Z,33.17
2023-04-28T13:10:15.639Z,34.18
2023-04-28T13:12:43.511Z,33.83
2023-04-28T13:15:11.257Z,33.45
2023-04-28T13:17:39.751Z,33.47
2023-04-28T13:20:07.732Z,33.53
2023-04-28T13:22:36.016Z,33.09
2023-04-28T13:25:04.006Z,33.62
2023-04-28T13:27:33.344Z,33.44
2023-04-28T13:30:01.204Z,33.58
2023-04-28T13:32:29.775Z,33.31
2023-04-28T13:34:57.698Z,33.13
2023-04-28T13:37:25.577Z,34.03
2023-04-28T13:39:53.448Z,33.62
2023-04-28T13:42:21.362Z,33.92
2023-04-28T13:44:49.399Z,33.25
2023-04-28T13:47:17.218Z,33.48
2023-04-28T13:49:45.023Z,33.76
2023-04-28T13:52:12.798Z,33.77
2023-04-28T13:54:40.647Z,33.53
2023-04-28T13:57:08.448Z,33.65
2023-04-28T13:59:36.232Z,34.17
2023-04-28T14:02:04.125Z,33.85
2023-04-28T14:04:32.165Z,33.63
2023-04-28T14:07:00.128Z,33.68
2023-04-28T14:09:28.082Z,33.82
2023-04-28T14:11:56.693Z,33.53
2023-04-28T14:14:24.497Z,33.58
2023-04-28T14:16:52.349Z,33.54
2023-04-28T14:19:20.995Z,33.49
2023-04-28T14:21:48.999Z,33.48
2023-04-28T14:24:16.784Z,33.57
2023-04-28T14:26:45.218Z,34.00
2023-04-28T14:29:13.005Z,33.97
2023-04-28T14:31:41.192Z,33.33
2023-04-28T14:34:09.532Z,32.79
2023-04-28T14:36:38.355Z,32.80
2023-04-28T14:39:06.220Z,32.27
2023-04-28T14:41:33.988Z,31.82
2023-04-28T14:44:01.817Z,31.88
2023-04-28T14:46:30.004Z,31.33
2023-04-28T14:48:58.481Z,31.35
2023-04-28T14:51:27.153Z,31.76
2023-04-28T14:53:55.106Z,30.66
2023-04-28T14:56:23.038Z,30.70
2023-04-28T14:58:50.842Z,30.65
2023-04-28T15:01:19.263Z,30.69
2023-04-28T15:03:47.398Z,31.08
2023-04-28T15:06:15.379Z,31.38
2023-04-28T15:08:43.289Z,30.92
2023-04-28T15:11:11.071Z,31.07
2023-04-28T15:13:40.018Z,31.38
2023-04-28T15:16:10.205Z,31.86
2023-04-28T15:18:38.523Z,31.96
2023-04-28T15:21:06.404Z,32.19
2023-04-28T15:23:34.335Z,31.78
2023-04-28T15:26:02.602Z,32.30
2023-04-28T15:28:30.822Z,31.86
2023-04-28T15:30:58.621Z,32.28
2023-04-28T15:33:26.676Z,32.73
2023-04-28T15:35:54.558Z,32.74
2023-04-28T15:38:22.969Z,33.30
2023-04-28T15:40:50.878Z,33.17
2023-04-28T15:43:18.809Z,33.26
2023-04-28T15:45:47.659Z,33.74
2023-04-28T15:48:16.639Z,33.60
2023-04-28T15:50:44.477Z,34.12
2023-04-28T15:53:12.356Z,33.97
2023-04-28T15:55:40.558Z,34.29
2023-04-28T15:58:08.984Z,34.56
2023-04-28T16:00:37.246Z,34.68
2023-04-28T16:03:05.203Z,34.80
2023-04-28T16:05:33.193Z,34.87
2023-04-28T16:08:01.420Z,34.85
2023-04-28T16:10:29.818Z,35.02
2023-04-28T16:12:58.947Z,35.27
2023-04-28T16:15:26.906Z,35.12
2023-04-28T16:17:56.998Z,34.84
2023-04-28T16:20:25.004Z,35.39
2023-04-28T16:22:53.384Z,35.14
2023-04-28T16:25:21.498Z,35.06
2023-04-28T16:27:49.624Z,35.19
2023-04-28T16:30:18.194Z,34.82
2023-04-28T16:32:46.257Z,33.59
2023-04-28T16:35:15.500Z,33.89
2023-04-28T16:37:43.615Z,34.08
2023-04-28T16:40:11.840Z,33.55
2023-04-28T16:42:39.965Z,34.04
2023-04-28T16:45:10.074Z,34.15
2023-04-28T16:47:38.268Z,34.68
2023-04-28T16:50:06.531Z,34.92
2023-04-28T16:52:34.323Z,34.58
2023-04-28T16:55:02.289Z,34.93
2023-04-28T16:57:30.293Z,34.36
2023-04-28T16:59:58.214Z,33.92
2023-04-28T17:02:26.359Z,34.17
2023-04-28T17:04:54.374Z,33.74
2023-04-28T17:07:24.932Z,34.19
2023-04-28T17:09:53.819Z,33.99
2023-04-28T17:12:23.482Z,33.92
2023-04-28T17:14:52.981Z,34.01
2023-04-28T17:17:21.200Z,34.47
2023-04-28T17:19:49.170Z,34.55
2023-04-28T17:22:17.315Z,34.48
2023-04-28T17:24:45.547Z,34.56
2023-04-28T17:27:14.797Z,34.59
2023-04-28T17:29:42.956Z,34.74
2023-04-28T17:32:11.253Z,34.43
2023-04-28T17:34:39.097Z,34.45
2023-04-28T17:37:07.255Z,34.24
2023-04-28T17:39:35.164Z,34.65
2023-04-28T17:42:04.879Z,34.49
2023-04-28T17:44:32.850Z,34.86
2023-04-28T17:47:01.559Z,34.93
2023-04-28T17:49:29.571Z,35.10
2023-04-28T17:51:57.403Z,35.43
2023-04-28T17:54:25.383Z,35.07
2023-04-28T17:56:53.341Z,35.04
2023-04-28T17:59:21.217Z,34.82
2023-04-28T18:01:49.206Z,34.17
2023-04-28T18:04:17.012Z,33.96
2023-04-28T18:06:44.976Z,34.04
2023-04-28T18:09:12.825Z,34.03
2023-04-28T18:11:42.946Z,33.61
2023-04-28T18:14:10.956Z,33.36
2023-04-28T18:16:38.889Z,33.89
2023-04-28T18:19:07.087Z,34.17
2023-04-28T18:21:35.335Z,34.22
2023-04-28T18:24:03.263Z,34.29
2023-04-28T18:26:31.244Z,34.47
2023-04-28T18:28:59.076Z,34.56
2023-04-28T18:31:26.912Z,34.59
2023-04-28T18:33:55.344Z,34.33
2023-04-28T18:36:23.282Z,34.40
2023-04-28T18:38:51.092Z,34.73
2023-04-28T18:41:19.212Z,34.83
2023-04-28T18:43:47.063Z,34.93
2023-04-28T18:46:14.980Z,34.60
2023-04-28T18:48:43.411Z,34.70
2023-04-28T18:51:11.418Z,34.60
2023-04-28T18:53:39.357Z,34.89
2023-04-28T18:56:07.370Z,34.76
2023-04-28T18:58:37.115Z,35.17
2023-04-28T19:01:05.224Z,34.79
2023-04-28T19:03:33.418Z,35.11
2023-04-28T19:06:01.539Z,35.32
2023-04-28T19:08:29.492Z,34.65
2023-04-28T19:10:57.310Z,34.62
2023-04-28T19:13:25.262Z,34.89
2023-04-28T19:15:53.185Z,35.26
2023-04-28T19:18:21.175Z,35.11
2023-04-28T19:20:50.604Z,34.91
2023-04-28T19:23:18.408Z,34.77
2023-04-28T19:25:46.231Z,35.17
2023-04-28T19:28:14.093Z,34.86
2023-04-28T19:30:42.059Z,35.01
2023-04-28T19:33:10.011Z,35.17
2023-04-28T19:35:38.028Z,35.10
2023-04-28T19:38:05.800Z,35.93
2023-04-28T19:40:33.890Z,35.29
2023-04-28T19:43:01.721Z,35.50
2023-04-28T19:45:29.551Z,35.45
2023-04-28T19:47:58.034Z,35.09
2023-04-28T19:50:25.929Z,35.37
2023-04-28T19:52:53.833Z,35.69
2023-04-28T19:55:23.122Z,35.13
2023-04-28T19:57:52.311Z,35.46
2023-04-28T20:00:20.224Z,35.43
2023-04-28T20:02:48.225Z,35.68
2023-04-28T20:05:16.098Z,35.58
2023-04-28T20:07:44.068Z,35.93
2023-04-28T20:10:12.736Z,35.72
2023-04-28T20:12:40.572Z,35.56
2023-04-28T20:15:08.634Z,35.97
2023-04-28T20:17:36.463Z,35.70
2023-04-28T20:20:04.888Z,35.76
2023-04-28T20:22:32.889Z,35.30
2023-04-28T20:25:01.991Z,35.94
2023-04-28T20:27:29.756Z,35.88
2023-04-28T20:29:57.649Z,35.48
2023-04-28T20:32:26.073Z,35.82
2023-04-28T20:34:54.143Z,35.85
2023-04-28T20:37:22.216Z,35.57
2023-04-28T20:39:50.706Z,35.89
2023-04-28T20:42:18.928Z,36.08
2023-04-28T20:44:48.810Z,35.83
2023-04-28T20:47:16.786Z,36.11
2023-04-28T20:49:44.639Z,35.96
2023-04-28T20:52:12.723Z,36.05
2023-04-28T20:54:40.692Z,36.28
2023-04-28T20:57:09.356Z,35.98
2023-04-28T20:59:37.210Z,35.97
2023-04-28T21:02:05.206Z,36.16
2023-04-28T21:04:33.201Z,36.17
2023-04-28T21:07:01.054Z,35.76
2023-04-28T21:09:28.906Z,35.68
2023-04-28T21:11:56.726Z,35.75
2023-04-28T21:14:24.709Z,36.01
2023-04-28T21:16:52.562Z,35.76
2023-04-28T21:19:20.407Z,35.87
2023-04-28T21:21:48.182Z,36.29
2023-04-28T21:24:16.108Z,35.94
2023-04-28T21:26:44.115Z,35.71
2023-04-28T21:29:12.032Z,35.85
2023-04-28T21:31:39.922Z,35.75
2023-04-28T21:34:07.773Z,36.22
2023-04-28T21:36:35.582Z,36.07
2023-04-28T21:39:04.478Z,36.05
2023-04-28T21:41:32.400Z,35.80
2023-04-28T21:44:00.553Z,35.77
2023-04-28T21:46:28.466Z,36.22
2023-04-28T21:48:56.691Z,35.99
2023-04-28T21:51:24.535Z,36.33
2023-04-28T21:53:52.295Z,36.43
2023-04-28T21:56:20.117Z,36.32
2023-04-28T21:58:47.929Z,36.02
2023-04-28T22:01:18.489Z,36.16
2023-04-28T22:03:46.578Z,36.19
2023-04-28T22:06:14.568Z,36.22
2023-04-28T22:08:42.487Z,36.67
2023-04-28T22:11:10.303Z,36.51
2023-04-28T22:13:38.350Z,36.54
2023-04-28T22:16:06.693Z,36.71
2023-04-28T22:18:34.654Z,36.51
2023-04-28T22:21:02.572Z,36.47
2023-04-28T22:23:30.449Z,36.84
2023-04-28T22:25:58.345Z,36.75
2023-04-28T22:28:26.577Z,36.76
2023-04-28T22:30:55.111Z,36.54
2023-04-28T22:33:22.966Z,36.43
2023-04-28T22:35:50.924Z,36.52
2023-04-28T22:38:18.704Z,37.09
2023-04-28T22:40:46.701Z,36.90
2023-04-28T22:43:14.510Z,36.95
2023-04-28T22:45:42.560Z,36.95
2023-04-28T22:48:10.552Z,36.65
2023-04-28T22:50:38.513Z,37.05
2023-04-28T22:53:06.353Z,36.89
2023-04-28T22:55:34.305Z,36.59
2023-04-28T22:58:02.147Z,36.75
2023-04-28T23:00:30.004Z,37.03
2023-04-28T23:02:57.890Z,36.79
2023-04-28T23:05:25.889Z,36.62
2023-04-28T23:07:53.758Z,36.64
2023-04-28T23:10:21.545Z,36.75
2023-04-28T23:12:49.619Z,36.83
2023-04-28T23:15:17.572Z,36.94
2023-04-28T23:17:45.413Z,36.84
2023-04-28T23:20:13.609Z,36.98
2023-04-28T23:22:41.786Z,36.74
2023-04-28T23:25:09.694Z,36.92
2023-04-28T23:27:37.519Z,36.77
2023-04-28T23:30:05.300Z,37.25
2023-04-28T23:32:33.251Z,36.97
2023-04-28T23:35:01.005Z,37.08
2023-04-28T23:37:28.874Z,36.99
2023-04-28T23:39:56.668Z,37.03
2023-04-28T23:42:24.788Z,36.47
2023-04-28T23:44:52.828Z,36.71
2023-04-28T23:47:20.781Z,36.43
2023-04-28T23:49:48.788Z,36.54
2023-04-28T23:52:16.649Z,36.82
2023-04-28T23:54:44.752Z,36.39
2023-04-28T23:57:12.624Z,36.80
2023-04-28T23:59:40.428Z,36.67
